createdAt,value
2023-01-10T00:00:13.602Z,4.35
2023-01-10T00:02:40.803Z,3.85
2023-01-10T00:05:07.777Z,4.70
2023-01-10T00:07:34.269Z,4.13
2023-01-10T00:10:01.307Z,5.13
2023-01-10T00:12:28.465Z,4.22
2023-01-10T00:14:55.243Z,4.57
2023-01-10T00:17:21.650Z,4.30
2023-01-10T00:19:48.424Z,4.07
2023-01-10T00:22:14.885Z,4.65
2023-01-10T00:24:41.600Z,3.80
2023-01-10T00:27:08.112Z,4.32
2023-01-10T00:29:34.936Z,3.88
2023-01-10T00:32:01.380Z,4.20
2023-01-10T00:34:28.413Z,3.70
2023-01-10T00:36:55.425Z,3.90
2023-01-10T00:39:21.971Z,3.85
2023-01-10T00:41:48.563Z,4.15
2023-01-10T00:44:15.376Z,3.65
2023-01-10T00:46:41.929Z,4.40
2023-01-10T00:49:08.737Z,4.13
2023-01-10T00:51:35.305Z,4.00
2023-01-10T00:54:02.008Z,4.82
2023-01-10T00:56:30.512Z,3.92
2023-01-10T00:58:57.463Z,4.28
2023-01-10T01:01:24.237Z,3.80
2023-01-10T01:03:50.830Z,3.28
2023-01-10T01:06:17.233Z,3.72
2023-01-10T01:08:44.031Z,3.88
2023-01-10T01:11:10.966Z,4.25
2023-01-10T01:13:37.864Z,3.55
2023-01-10T01:16:04.395Z,3.63
2023-01-10T01:18:31.211Z,3.85
2023-01-10T01:20:58.082Z,2.72
2023-01-10T01:23:24.795Z,3.78
2023-01-10T01:25:51.245Z,3.40
2023-01-10T01:28:17.705Z,4.68
2023-01-10T01:30:44.456Z,4.00
2023-01-10T01:33:10.957Z,4.28
2023-01-10T01:35:37.507Z,3.60
2023-01-10T01:38:04.101Z,3.47
2023-01-10T01:40:30.588Z,3.50
2023-01-10T01:42:57.101Z,4.38
2023-01-10T01:45:23.523Z,3.92
2023-01-10T01:47:50.375Z,3.65
2023-01-10T01:50:16.929Z,4.18
2023-01-10T01:52:43.964Z,3.25
2023-01-10T01:55:10.643Z,3.58
2023-01-10T01:57:37.183Z,4.28
2023-01-10T02:00:04.020Z,3.60
2023-01-10T02:02:31.137Z,3.58
2023-01-10T02:04:58.899Z,4.72
2023-01-10T02:07:25.695Z,3.47
2023-01-10T02:09:52.351Z,3.42
2023-01-10T02:12:19.251Z,2.85
2023-01-10T02:14:45.795Z,4.05
2023-01-10T02:17:12.514Z,3.47
2023-01-10T02:19:38.956Z,4.20
2023-01-10T02:22:05.512Z,4.13
2023-01-10T02:24:32.051Z,3.35
2023-01-10T02:26:58.624Z,3.33
2023-01-10T02:29:25.659Z,3.38
2023-01-10T02:31:52.179Z,3.42
2023-01-10T02:34:19.042Z,3.13
2023-01-10T02:36:45.891Z,4.00
2023-01-10T02:39:12.559Z,3.40
2023-01-10T02:41:39.164Z,3.30
2023-01-10T02:44:05.810Z,3.05
2023-01-10T02:46:32.630Z,3.15
2023-01-10T02:48:59.194Z,3.30
2023-01-10T02:51:25.731Z,4.30
2023-01-10T02:53:52.909Z,3.45
2023-01-10T02:56:19.411Z,4.47
2023-01-10T02:58:45.933Z,3.05
2023-01-10T03:01:12.736Z,4.88
2023-01-10T03:03:39.519Z,3.42
2023-01-10T03:06:05.957Z,4.00
2023-01-10T03:08:32.908Z,2.92
2023-01-10T03:10:59.487Z,3.83
2023-01-10T03:13:26.433Z,3.13
2023-01-10T03:15:53.248Z,3.35
2023-01-10T03:18:19.834Z,3.72
2023-01-10T03:20:47.074Z,2.75
2023-01-10T03:23:13.798Z,3.42
2023-01-10T03:25:40.585Z,3.47
2023-01-10T03:28:07.462Z,3.30
2023-01-10T03:30:34.081Z,3.10
2023-01-10T03:33:00.576Z,3.75
2023-01-10T03:35:27.652Z,3.45
2023-01-10T03:37:54.114Z,3.50
2023-01-10T03:40:20.961Z,2.80
2023-01-10T03:42:47.892Z,3.30
2023-01-10T03:45:14.437Z,3.33
2023-01-10T03:47:41.371Z,3.28
2023-01-10T03:50:07.863Z,3.10
2023-01-10T03:52:34.487Z,3.13
2023-01-10T03:55:00.871Z,3.42
2023-01-10T03:57:28.176Z,3.70
2023-01-10T03:59:55.075Z,3.08
2023-01-10T04:02:21.703Z,3.85
2023-01-10T04:04:48.205Z,3.95
2023-01-10T04:07:15.252Z,3.95
2023-01-10T04:09:42.101Z,3.42
2023-01-10T04:12:08.624Z,3.53
2023-01-10T04:14:35.150Z,3.50
2023-01-10T04:17:01.846Z,3.58
2023-01-10T04:19:28.358Z,3.88
2023-01-10T04:21:55.155Z,3.88
2023-01-10T04:24:22.505Z,3.28
2023-01-10T04:26:49.368Z,4.13
2023-01-10T04:29:15.916Z,3.70
2023-01-10T04:31:42.527Z,3.58
2023-01-10T04:34:09.430Z,3.30
2023-01-10T04:36:36.159Z,3.55
2023-01-10T04:39:02.712Z,3.50
2023-01-10T04:41:29.619Z,3.35
2023-01-10T04:43:56.740Z,3.30
2023-01-10T04:46:23.226Z,4.85
2023-01-10T04:48:49.706Z,3.38
2023-01-10T04:51:16.164Z,3.92
2023-01-10T04:53:42.717Z,3.65
2023-01-10T04:56:09.594Z,3.63
2023-01-10T04:58:36.613Z,3.92
2023-01-10T05:01:03.689Z,4.30
2023-01-10T05:03:30.322Z,3.38
2023-01-10T05:05:57.121Z,3.65
2023-01-10T05:08:23.661Z,3.25
2023-01-10T05:10:50.613Z,4.25
2023-01-10T05:13:18.094Z,4.18
2023-01-10T05:15:44.830Z,3.83
2023-01-10T05:18:11.670Z,4.93
2023-01-10T05:20:38.141Z,3.40
2023-01-10T05:23:05.104Z,4.00
2023-01-10T05:25:32.229Z,4.30
2023-01-10T05:27:59.203Z,4.45
2023-01-10T05:30:25.971Z,4.03
2023-01-10T05:32:52.554Z,3.80
2023-01-10T05:35:19.239Z,3.95
2023-01-10T05:37:45.784Z,3.78
2023-01-10T05:40:12.353Z,3.67
2023-01-10T05:42:39.562Z,4.72
2023-01-10T05:45:06.073Z,4.80
2023-01-10T05:47:32.546Z,4.55
2023-01-10T05:49:59.153Z,3.60
2023-01-10T05:52:25.682Z,4.20
2023-01-10T05:54:52.419Z,4.22
2023-01-10T05:57:19.291Z,4.13
2023-01-10T05:59:46.022Z,5.10
2023-01-10T06:02:12.591Z,4.65
2023-01-10T06:04:39.459Z,5.85
2023-01-10T06:07:06.231Z,4.53
2023-01-10T06:09:32.866Z,4.30
2023-01-10T06:11:59.258Z,4.20
2023-01-10T06:14:26.133Z,4.47
2023-01-10T06:16:53.526Z,5.18
2023-01-10T06:19:20.482Z,4.20
2023-01-10T06:21:47.759Z,4.68
2023-01-10T06:24:14.248Z,4.32
2023-01-10T06:26:41.381Z,4.68
2023-01-10T06:29:08.856Z,4.38
2023-01-10T06:31:35.435Z,4.53
2023-01-10T06:34:01.953Z,4.30
2023-01-10T06:36:28.452Z,3.78
2023-01-10T06:38:55.223Z,4.10
2023-01-10T06:41:21.705Z,4.40
2023-01-10T06:43:48.117Z,8.45
2023-01-10T06:46:14.793Z,7.15
2023-01-10T06:48:41.440Z,9.10
2023-01-10T06:51:07.924Z,9.23
2023-01-10T06:53:35.060Z,9.32
2023-01-10T06:56:01.606Z,8.85
2023-01-10T06:58:28.050Z,8.00
2023-01-10T07:00:54.744Z,9.45
2023-01-10T07:03:21.802Z,7.25
2023-01-10T07:05:48.422Z,9.57
2023-01-10T07:08:15.278Z,7.47
2023-01-10T07:10:42.121Z,10.52
2023-01-10T07:13:08.868Z,10.73
2023-01-10T07:15:35.218Z,14.23
2023-01-10T07:18:01.686Z,10.88
2023-01-10T07:20:28.294Z,10.75
2023-01-10T07:22:55.124Z,9.00
2023-01-10T07:25:21.551Z,14.43
2023-01-10T07:27:47.897Z,8.80
2023-01-10T07:30:14.783Z,12.68
2023-01-10T07:32:41.584Z,12.27
2023-01-10T07:35:08.350Z,13.60
2023-01-10T07:37:35.175Z,16.60
2023-01-10T07:40:02.360Z,22.67
2023-01-10T07:42:29.523Z,27.98
2023-01-10T07:44:56.318Z,42.60
2023-01-10T07:47:23.561Z,52.35
2023-01-10T07:49:50.313Z,68.40
2023-01-10T07:52:17.043Z,67.32
2023-01-10T07:54:43.743Z,64.90
2023-01-10T07:57:10.566Z,67.82
2023-01-10T07:59:37.197Z,61.53
2023-01-10T08:02:04.947Z,65.53
2023-01-10T08:04:31.891Z,73.95
2023-01-10T08:06:58.905Z,74.57
2023-01-10T08:09:25.732Z,79.65
2023-01-10T08:11:52.713Z,75.53
2023-01-10T08:14:19.393Z,79.15
2023-01-10T08:16:46.487Z,67.55
2023-01-10T08:19:12.912Z,83.55
2023-01-10T08:21:39.825Z,75.75
2023-01-10T08:24:07.867Z,79.47
2023-01-10T08:26:34.294Z,80.00
2023-01-10T08:29:00.661Z,79.90
2023-01-10T08:31:27.068Z,85.43
2023-01-10T08:33:53.906Z,111.13
2023-01-10T08:36:20.858Z,108.20
2023-01-10T08:38:47.669Z,106.85
2023-01-10T08:41:14.147Z,117.30
2023-01-10T08:43:40.933Z,115.60
2023-01-10T08:46:08.345Z,111.45
2023-01-10T08:48:35.206Z,126.78
2023-01-10T08:51:01.951Z,128.13
2023-01-10T08:53:28.451Z,114.82
2023-01-10T08:55:54.941Z,113.75
2023-01-10T08:58:21.470Z,130.55
2023-01-10T09:00:48.148Z,135.90
2023-01-10T09:03:15.543Z,138.00
2023-01-10T09:05:42.406Z,140.75
2023-01-10T09:08:09.618Z,141.00
2023-01-10T09:10:36.211Z,126.32
2023-01-10T09:13:02.646Z,128.75
2023-01-10T09:15:29.634Z,134.63
2023-01-10T09:17:56.448Z,133.48
2023-01-10T09:20:23.004Z,133.45
2023-01-10T09:22:49.435Z,124.20
2023-01-10T09:25:16.149Z,121.60
2023-01-10T09:27:42.796Z,123.68
2023-01-10T09:30:10.013Z,127.45
2023-01-10T09:32:37.390Z,117.93
2023-01-10T09:35:04.405Z,113.05
2023-01-10T09:37:31.108Z,116.88
2023-01-10T09:39:57.553Z,115.10
2023-01-10T09:42:24.634Z,107.15
2023-01-10T09:44:51.488Z,107.15
2023-01-10T09:47:22.851Z,108.40
2023-01-10T09:49:49.914Z,102.95
2023-01-10T09:52:16.325Z,100.35
2023-01-10T09:54:42.724Z,104.80
2023-01-10T09:57:09.574Z,100.93
2023-01-10T09:59:36.563Z,104.78
2023-01-10T10:02:02.996Z,100.18
2023-01-10T10:04:29.477Z,103.05
2023-01-10T10:06:56.324Z,106.32
2023-01-10T10:09:22.853Z,101.70
2023-01-10T10:11:49.725Z,91.45
2023-01-10T10:14:16.143Z,101.53
2023-01-10T10:16:42.935Z,97.35
2023-01-10T10:19:09.446Z,104.95
2023-01-10T10:21:36.422Z,94.57
2023-01-10T10:24:03.493Z,97.32
2023-01-10T10:26:30.293Z,102.65
2023-01-10T10:28:57.053Z,96.05
2023-01-10T10:31:23.672Z,101.88
2023-01-10T10:33:50.610Z,98.35
2023-01-10T10:36:17.568Z,100.07
2023-01-10T10:38:44.305Z,104.60
2023-01-10T10:41:10.880Z,96.57
2023-01-10T10:43:37.836Z,104.60
2023-01-10T10:46:04.456Z,98.35
2023-01-10T10:48:31.517Z,104.75
2023-01-10T10:50:58.360Z,102.68
2023-01-10T10:53:24.834Z,101.97
2023-01-10T10:55:51.300Z,96.05
2023-01-10T10:58:17.654Z,101.22
2023-01-10T11:00:44.739Z,106.47
2023-01-10T11:03:11.578Z,97.63
2023-01-10T11:05:38.606Z,92.50
2023-01-10T11:08:05.111Z,97.35
2023-01-10T11:10:31.460Z,101.60
2023-01-10T11:12:58.110Z,93.13
2023-01-10T11:15:24.686Z,96.70
2023-01-10T11:17:51.220Z,87.50
2023-01-10T11:20:18.504Z,85.10
2023-01-10T11:22:45.003Z,93.65
2023-01-10T11:25:11.447Z,86.60
2023-01-10T11:27:39.004Z,84.68
2023-01-10T11:30:05.431Z,87.07
2023-01-10T11:32:31.821Z,88.32
2023-01-10T11:34:58.506Z,83.22
2023-01-10T11:37:24.859Z,87.05
2023-01-10T11:39:51.200Z,79.03
2023-01-10T11:42:17.739Z,88.85
2023-01-10T11:44:44.488Z,90.78
2023-01-10T11:47:10.942Z,77.00
2023-01-10T11:49:37.411Z,83.60
2023-01-10T11:52:03.774Z,79.15
2023-01-10T11:54:30.227Z,80.45
2023-01-10T11:56:59.478Z,70.45
2023-01-10T11:59:26.222Z,78.57
2023-01-10T12:01:52.850Z,78.60
2023-01-10T12:04:19.296Z,73.32
2023-01-10T12:06:45.799Z,70.05
2023-01-10T12:09:12.280Z,76.20
2023-01-10T12:11:38.601Z,68.50
2023-01-10T12:14:05.123Z,76.25
2023-01-10T12:16:32.229Z,67.60
2023-01-10T12:18:58.628Z,65.18
2023-01-10T12:21:25.818Z,66.70
2023-01-10T12:23:52.212Z,64.53
2023-01-10T12:26:18.787Z,71.68
2023-01-10T12:28:45.861Z,68.15
2023-01-10T12:31:12.221Z,67.32
2023-01-10T12:33:38.981Z,61.92
2023-01-10T12:36:05.685Z,60.72
2023-01-10T12:38:33.177Z,61.17
2023-01-10T12:40:59.676Z,64.32
2023-01-10T12:43:26.648Z,66.72
2023-01-10T12:45:53.724Z,60.38
2023-01-10T12:48:20.880Z,56.47
2023-01-10T12:50:47.664Z,58.03
2023-01-10T12:53:14.671Z,60.80
2023-01-10T12:55:40.972Z,57.03
2023-01-10T12:58:07.854Z,54.33
2023-01-10T13:00:40.552Z,57.10
2023-01-10T13:03:13.910Z,62.20
2023-01-10T13:05:40.308Z,50.13
2023-01-10T13:08:07.066Z,55.20
2023-01-10T13:10:33.415Z,51.05
2023-01-10T13:13:00.223Z,55.08
2023-01-10T13:15:27.008Z,53.58
2023-01-10T13:17:54.156Z,52.60
2023-01-10T13:20:20.589Z,52.65
2023-01-10T13:22:47.515Z,52.70
2023-01-10T13:25:15.657Z,50.17
2023-01-10T13:27:42.281Z,47.45
2023-01-10T13:30:08.775Z,47.42
2023-01-10T13:32:35.880Z,52.13
2023-01-10T13:35:03.309Z,49.83
2023-01-10T13:37:30.076Z,46.60
2023-01-10T13:39:56.966Z,48.25
2023-01-10T13:42:23.740Z,46.75
2023-01-10T13:44:50.647Z,45.47
2023-01-10T13:47:17.079Z,47.13
2023-01-10T13:49:43.521Z,46.78
2023-01-10T13:52:10.348Z,48.00
2023-01-10T13:54:36.978Z,48.00
2023-01-10T13:57:03.576Z,48.13
2023-01-10T13:59:30.097Z,43.85
2023-01-10T14:01:56.766Z,42.80
2023-01-10T14:04:24.090Z,44.70
2023-01-10T14:06:50.497Z,42.38
2023-01-10T14:09:18.554Z,45.60
2023-01-10T14:11:46.232Z,43.95
2023-01-10T14:14:13.318Z,46.83
2023-01-10T14:19:06.673Z,41.85
2023-01-10T14:21:33.064Z,41.72
2023-01-10T14:23:59.441Z,39.03
2023-01-10T14:26:26.390Z,43.03
2023-01-10T14:28:53.452Z,41.20
2023-01-10T14:31:20.000Z,41.17
2023-01-10T14:33:46.585Z,40.85
2023-01-10T14:36:13.135Z,36.78
2023-01-10T14:38:39.532Z,36.15
2023-01-10T14:41:06.377Z,37.28
2023-01-10T14:43:33.343Z,35.40
2023-01-10T14:45:59.934Z,36.22
2023-01-10T14:48:26.581Z,33.95
2023-01-10T14:50:52.975Z,34.75
2023-01-10T14:53:19.683Z,34.22
2023-01-10T14:55:46.572Z,35.17
2023-01-10T14:58:13.652Z,33.15
2023-01-10T15:00:40.254Z,30.27
2023-01-10T15:03:06.995Z,31.02
2023-01-10T15:05:33.565Z,31.48
2023-01-10T15:08:00.322Z,29.75
2023-01-10T15:10:26.827Z,32.47
2023-01-10T15:12:53.231Z,31.58
2023-01-10T15:15:19.736Z,27.77
2023-01-10T15:17:46.164Z,27.55
2023-01-10T15:20:13.281Z,28.20
2023-01-10T15:22:40.246Z,28.08
2023-01-10T15:25:06.638Z,27.17
2023-01-10T15:27:33.036Z,26.15
2023-01-10T15:29:59.460Z,28.20
2023-01-10T15:32:25.807Z,26.23
2023-01-10T15:34:52.528Z,29.20
2023-01-10T15:37:19.855Z,25.50
2023-01-10T15:39:46.841Z,30.48
2023-01-10T15:42:13.179Z,27.05
2023-01-10T15:44:39.986Z,26.08
2023-01-10T15:47:06.343Z,27.17
2023-01-10T15:49:32.722Z,29.05
2023-01-10T15:51:59.123Z,27.48
2023-01-10T15:54:25.543Z,27.63
2023-01-10T15:56:52.676Z,28.15
2023-01-10T15:59:19.763Z,26.58
2023-01-10T16:01:46.822Z,26.95
2023-01-10T16:04:13.706Z,25.15
2023-01-10T16:06:40.141Z,29.13
2023-01-10T16:09:06.750Z,27.67
2023-01-10T16:11:33.078Z,27.02
2023-01-10T16:13:59.517Z,28.50
2023-01-10T16:16:25.858Z,25.73
2023-01-10T16:18:52.990Z,26.42
2023-01-10T16:21:19.430Z,26.02
2023-01-10T16:23:45.917Z,25.60
2023-01-10T16:26:12.533Z,24.98
2023-01-10T16:28:39.433Z,25.92
2023-01-10T16:31:06.855Z,26.50
2023-01-10T16:33:33.453Z,25.83
2023-01-10T16:36:00.338Z,26.83
2023-01-10T16:38:26.673Z,24.42
2023-01-10T16:40:53.150Z,24.73
2023-01-10T16:43:20.158Z,23.58
2023-01-10T16:45:47.170Z,27.38
2023-01-10T16:48:13.798Z,27.92
2023-01-10T16:50:40.663Z,23.73
2023-01-10T16:53:07.632Z,25.98
2023-01-10T16:55:34.487Z,26.88
2023-01-10T16:58:00.965Z,25.60
2023-01-10T17:00:27.523Z,26.42
2023-01-10T17:02:53.920Z,26.40
2023-01-10T17:05:20.273Z,26.83
2023-01-10T17:07:47.415Z,25.33
2023-01-10T17:10:14.303Z,27.33
2023-01-10T17:12:41.182Z,23.77
2023-01-10T17:15:07.757Z,25.33
2023-01-10T17:17:34.219Z,26.95
2023-01-10T17:20:01.172Z,24.95
2023-01-10T17:22:28.198Z,24.60
2023-01-10T17:24:54.549Z,23.75
2023-01-10T17:27:21.113Z,25.77
2023-01-10T17:29:48.055Z,23.67
2023-01-10T17:32:14.505Z,22.60
2023-01-10T17:34:41.467Z,23.02
2023-01-10T17:37:08.639Z,22.58
2023-01-10T17:39:36.271Z,27.33
2023-01-10T17:42:03.080Z,24.65
2023-01-10T17:44:29.456Z,22.25
2023-01-10T17:46:56.585Z,23.45
2023-01-10T17:49:23.139Z,22.60
2023-01-10T17:51:49.561Z,21.90
2023-01-10T17:54:16.373Z,24.10
2023-01-10T17:56:43.180Z,26.35
2023-01-10T17:59:10.088Z,34.10
2023-01-10T18:01:36.736Z,29.45
2023-01-10T18:04:03.672Z,27.38
2023-01-10T18:06:30.145Z,30.13
2023-01-10T18:08:56.715Z,28.80
2023-01-10T18:11:23.033Z,27.55
2023-01-10T18:13:49.677Z,23.90
2023-01-10T18:16:16.341Z,31.95
2023-01-10T18:18:43.063Z,25.98
2023-01-10T18:21:09.476Z,25.50
2023-01-10T18:23:35.969Z,24.98
2023-01-10T18:26:02.726Z,102.28
2023-01-10T18:28:40.478Z,123.03
2023-01-10T18:31:07.124Z,130.90
2023-01-10T18:33:34.129Z,144.85
2023-01-10T18:36:01.116Z,173.73
2023-01-10T18:38:27.644Z,224.40
2023-01-10T18:40:54.836Z,254.23
2023-01-10T18:43:21.740Z,245.95
2023-01-10T18:45:48.117Z,242.00
2023-01-10T18:48:14.990Z,228.90
2023-01-10T18:50:41.503Z,221.77
2023-01-10T18:53:08.704Z,218.40
2023-01-10T18:55:35.940Z,211.25
2023-01-10T18:58:02.696Z,204.02
2023-01-10T19:00:29.552Z,196.50
2023-01-10T19:02:56.459Z,191.95
2023-01-10T19:05:23.314Z,190.68
2023-01-10T19:07:50.254Z,184.10
2023-01-10T19:10:17.444Z,176.32
2023-01-10T19:12:43.903Z,173.80
2023-01-10T19:15:11.370Z,168.80
2023-01-10T19:17:38.432Z,160.82
2023-01-10T19:20:05.073Z,162.30
2023-01-10T19:22:32.573Z,162.05
2023-01-10T19:24:58.977Z,154.70
2023-01-10T19:27:25.395Z,147.30
2023-01-10T19:29:51.937Z,147.35
2023-01-10T19:32:18.322Z,145.63
2023-01-10T19:34:46.427Z,139.98
2023-01-10T19:37:13.895Z,137.40
2023-01-10T19:39:40.482Z,132.48
2023-01-10T19:42:06.881Z,134.93
2023-01-10T19:44:33.325Z,124.03
2023-01-10T19:46:59.768Z,124.65
2023-01-10T19:49:26.226Z,167.82
2023-01-10T19:51:52.976Z,214.02
2023-01-10T19:54:20.356Z,237.25
2023-01-10T19:56:47.795Z,245.52
2023-01-10T19:59:14.384Z,249.90
2023-01-10T20:01:41.596Z,247.68
2023-01-10T20:04:07.912Z,236.73
2023-01-10T20:06:35.237Z,232.95
2023-01-10T20:09:02.166Z,227.50
2023-01-10T20:11:28.859Z,221.63
2023-01-10T20:13:55.795Z,216.18
2023-01-10T20:16:22.422Z,211.80
2023-01-10T20:18:49.177Z,206.77
2023-01-10T20:21:16.450Z,207.15
2023-01-10T20:23:42.785Z,203.05
2023-01-10T20:26:09.980Z,196.85
2023-01-10T20:28:36.523Z,189.00
2023-01-10T20:31:02.989Z,188.25
2023-01-10T20:33:29.367Z,181.13
2023-01-10T20:35:55.842Z,176.77
2023-01-10T20:38:22.851Z,173.68
2023-01-10T20:40:49.394Z,171.20
2023-01-10T20:43:15.976Z,167.32
2023-01-10T20:45:42.389Z,170.63
2023-01-10T20:48:09.182Z,163.35
2023-01-10T20:50:36.072Z,161.50
2023-01-10T20:53:03.140Z,160.10
2023-01-10T20:55:29.874Z,172.20
2023-01-10T20:57:56.929Z,235.90
2023-01-10T21:00:23.460Z,265.10
2023-01-10T21:02:50.378Z,233.13
2023-01-10T21:05:16.975Z,231.32
2023-01-10T21:07:43.611Z,227.45
2023-01-10T21:10:10.480Z,221.32
2023-01-10T21:12:37.441Z,166.88
2023-01-10T21:15:04.242Z,141.13
2023-01-10T21:17:30.653Z,117.25
2023-01-10T21:19:58.148Z,112.90
2023-01-10T21:22:25.078Z,125.93
2023-01-10T21:24:51.724Z,145.90
2023-01-10T21:27:18.890Z,179.85
2023-01-10T21:29:45.432Z,212.70
2023-01-10T21:32:11.855Z,236.20
2023-01-10T21:34:38.346Z,233.05
2023-01-10T21:37:05.029Z,232.68
2023-01-10T21:39:31.704Z,220.00
2023-01-10T21:41:58.668Z,224.13
2023-01-10T21:44:25.144Z,213.30
2023-01-10T21:46:52.030Z,208.07
2023-01-10T21:49:18.504Z,208.82
2023-01-10T21:51:44.944Z,198.57
2023-01-10T21:54:11.394Z,198.70
2023-01-10T21:56:37.752Z,186.65
2023-01-10T21:59:04.161Z,167.73
2023-01-10T22:01:30.606Z,168.65
2023-01-10T22:03:57.196Z,170.32
2023-01-10T22:06:23.640Z,169.60
2023-01-10T22:08:50.099Z,177.82
2023-01-10T22:11:16.652Z,201.43
2023-01-10T22:13:43.022Z,197.18
2023-01-10T22:16:09.554Z,216.10
2023-01-10T22:18:36.101Z,221.00
2023-01-10T22:21:02.815Z,215.55
2023-01-10T22:23:29.403Z,214.23
2023-01-10T22:25:55.984Z,207.35
2023-01-10T22:28:22.375Z,200.73
2023-01-10T22:30:48.801Z,195.38
2023-01-10T22:33:15.215Z,199.13
2023-01-10T22:35:41.690Z,187.70
2023-01-10T22:38:08.279Z,188.98
2023-01-10T22:40:34.632Z,183.63
2023-01-10T22:43:01.159Z,174.07
2023-01-10T22:45:27.854Z,173.32
2023-01-10T22:47:55.235Z,167.68
2023-01-10T22:50:21.643Z,164.57
2023-01-10T22:52:48.284Z,161.40
2023-01-10T22:55:14.763Z,158.13
2023-01-10T22:57:47.277Z,156.02
2023-01-10T23:00:13.985Z,154.85
2023-01-10T23:02:40.706Z,150.20
2023-01-10T23:05:07.314Z,144.52
2023-01-10T23:07:33.755Z,153.55
2023-01-10T23:10:00.136Z,142.45
2023-01-10T23:12:26.968Z,138.50
2023-01-10T23:14:54.743Z,135.80
2023-01-10T23:17:22.019Z,135.43
2023-01-10T23:19:49.030Z,130.88
2023-01-10T23:22:15.677Z,127.53
2023-01-10T23:24:42.985Z,126.43
2023-01-10T23:27:09.924Z,121.78
2023-01-10T23:29:36.221Z,120.30
2023-01-10T23:32:03.199Z,117.13
2023-01-10T23:34:29.696Z,116.13
2023-01-10T23:36:56.466Z,114.10
2023-01-10T23:39:23.345Z,114.25
2023-01-10T23:41:50.383Z,108.03
2023-01-10T23:44:16.819Z,108.50
2023-01-10T23:46:43.200Z,110.10
2023-01-10T23:49:10.102Z,105.93
2023-01-10T23:51:36.869Z,101.85
2023-01-10T23:54:03.616Z,99.68
2023-01-10T23:56:30.070Z,97.45
2023-01-10T23:58:56.535Z,94.85
